Time;durP1;ratioP1;P1;durP2;ratioP2;P2;SDS_P1;SDS_P2;PMS_P1;PMS_P2;Temp;Humidity;BMP_temperature;BMP_pressure;BME280_temperature;BME280_humidity;BME280_pressure;Samples;Min_cycle;Max_cycle;Signal;HPM_P1;HPM_P2
2023/10/19 00:01:51;;;;;;;14.07;12.67;;;16.00;84.30;;;;;;5093039;28;20450;-65
2023/10/19 00:04:19;;;;;;;14.23;12.73;;;16.00;84.40;;;;;;5092585;28;20478;-64
2023/10/19 00:06:48;;;;;;;13.47;12.07;;;16.00;84.40;;;;;;5092763;28;20762;-64
2023/10/19 00:09:16;;;;;;;15.03;12.53;;;16.00;84.10;;;;;;5093138;28;20803;-65
2023/10/19 00:11:42;;;;;;;13.13;11.90;;;16.00;83.90;;;;;;5093288;28;20454;-65
2023/10/19 00:14:15;;;;;;;14.83;12.33;;;16.00;83.90;;;;;;5089866;28;20981;-65
2023/10/19 00:16:49;;;;;;;13.47;12.07;;;16.00;84.10;;;;;;5094035;28;20472;-65
2023/10/19 00:19:19;;;;;;;16.07;12.57;;;16.10;84.30;;;;;;5093411;28;20478;-65
2023/10/19 00:21:55;;;;;;;15.20;13.20;;;16.00;84.70;;;;;;5093008;28;20465;-64
2023/10/19 00:24:23;;;;;;;13.30;11.97;;;16.10;84.20;;;;;;5092480;28;20453;-64
2023/10/19 00:26:53;;;;;;;13.70;12.30;;;16.10;84.20;;;;;;5092184;28;20449;-65
2023/10/19 00:29:30;;;;;;;13.77;12.40;;;16.10;84.20;;;;;;5093216;28;20460;-65
2023/10/19 00:31:59;;;;;;;12.80;11.50;;;16.10;84.40;;;;;;5104626;28;20500;-65
2023/10/19 00:34:26;;;;;;;13.87;12.47;;;16.10;84.30;;;;;;5113032;28;20459;-66
2023/10/19 00:36:55;;;;;;;14.90;12.60;;;16.10;84.30;;;;;;5102271;28;20440;-64
2023/10/19 00:39:23;;;;;;;12.07;10.87;;;16.10;84.40;;;;;;5093627;28;20561;-64
2023/10/19 00:41:56;;;;;;;13.00;11.60;;;16.10;84.40;;;;;;5092934;28;20459;-65
2023/10/19 00:44:29;;;;;;;13.37;12.03;;;16.10;84.40;;;;;;5093463;28;20794;-65
2023/10/19 00:47:02;;;;;;;13.40;11.67;;;16.10;84.40;;;;;;5092520;28;20459;-64
2023/10/19 00:49:29;;;;;;;12.27;11.00;;;16.10;85.40;;;;;;5092600;28;21048;-64
2023/10/19 00:52:03;;;;;;;13.20;11.90;;;16.10;84.50;;;;;;5091972;28;20500;-64
2023/10/19 00:54:35;;;;;;;13.50;12.10;;;16.10;84.50;;;;;;5088654;28;20539;-65
2023/10/19 00:57:10;;;;;;;13.23;11.90;;;16.10;84.70;;;;;;5092017;28;20478;-65
2023/10/19 00:59:42;;;;;;;15.43;13.70;;;16.10;85.00;;;;;;5092969;28;20535;-65
2023/10/19 01:02:19;;;;;;;14.97;12.70;;;16.00;85.40;;;;;;5091940;28;21004;-65
2023/10/19 01:04:55;;;;;;;15.60;13.83;;;15.90;85.60;;;;;;5091952;28;20474;-65
2023/10/19 01:07:27;;;;;;;15.83;13.20;;;15.80;86.10;;;;;;5091523;28;20460;-64
2023/10/19 01:09:56;;;;;;;14.03;12.53;;;15.80;86.70;;;;;;5092335;28;20451;-65
2023/10/19 01:12:29;;;;;;;15.47;12.67;;;15.80;86.80;;;;;;5084159;28;20470;-65
2023/10/19 01:15:09;;;;;;;15.40;13.80;;;15.80;86.90;;;;;;5092648;28;21011;-65
2023/10/19 01:17:39;;;;;;;15.13;13.30;;;15.90;87.00;;;;;;5091620;28;20454;-64
2023/10/19 01:20:17;;;;;;;15.63;12.70;;;15.90;86.70;;;;;;5092564;28;20458;-64
2023/10/19 01:23:06;;;;;;;15.73;13.17;;;15.90;87.00;;;;;;5076694;28;20825;-64
2023/10/19 01:25:38;;;;;;;13.63;12.23;;;15.90;87.10;;;;;;5052507;28;20498;-64
2023/10/19 01:28:09;;;;;;;14.23;12.63;;;15.90;87.90;;;;;;5074582;28;20537;-64
2023/10/19 01:30:37;;;;;;;13.87;12.43;;;15.90;87.40;;;;;;5092023;28;20947;-65
2023/10/19 01:33:08;;;;;;;13.40;11.77;;;15.80;87.30;;;;;;5092284;28;21013;-63
2023/10/19 01:38:17;;;;;;;15.43;12.87;;;15.80;88.50;;;;;;5091569;28;20938;-66
2023/10/19 01:40:48;;;;;;;15.13;13.40;;;15.80;88.60;;;;;;5092066;28;20443;-64
2023/10/19 01:43:20;;;;;;;14.43;12.83;;;15.80;88.70;;;;;;5092396;28;20455;-64
2023/10/19 01:45:48;;;;;;;14.07;12.33;;;15.80;88.70;;;;;;5091098;28;20494;-65
2023/10/19 01:48:15;;;;;;;14.07;11.87;;;15.90;88.70;;;;;;5091162;28;20502;-64
2023/10/19 01:50:42;;;;;;;14.30;11.67;;;15.90;88.80;;;;;;5091872;28;20864;-63
2023/10/19 01:53:15;;;;;;;13.07;11.77;;;15.90;88.80;;;;;;5090720;28;20474;-64
2023/10/19 01:55:44;;;;;;;14.10;11.77;;;16.00;88.90;;;;;;5091362;28;20440;-64
2023/10/19 01:58:10;;;;;;;12.53;11.23;;;16.00;88.80;;;;;;5092026;28;20442;-64
2023/10/19 02:00:39;;;;;;;12.30;10.97;;;16.10;88.60;;;;;;5091220;28;20501;-65
2023/10/19 02:03:07;;;;;;;11.27;10.13;;;16.10;88.20;;;;;;5092023;28;20462;-62
2023/10/19 02:05:39;;;;;;;12.37;11.17;;;16.10;88.00;;;;;;5091163;28;20524;-64
2023/10/19 02:08:07;;;;;;;11.47;10.37;;;16.20;87.60;;;;;;5090979;28;20462;-65
2023/10/19 02:10:34;;;;;;;13.63;12.07;;;16.20;87.40;;;;;;5089539;28;20513;-64
2023/10/19 02:13:06;;;;;;;13.47;12.13;;;16.20;87.60;;;;;;5091340;28;20450;-64
2023/10/19 02:15:35;;;;;;;13.33;11.93;;;16.20;87.70;;;;;;5090951;28;20490;-64
2023/10/19 02:18:02;;;;;;;12.70;11.40;;;16.20;87.70;;;;;;5090856;28;20453;-64
2023/10/19 02:20:29;;;;;;;13.50;11.07;;;16.20;87.90;;;;;;5091128;28;20446;-64
2023/10/19 02:22:57;;;;;;;12.10;10.90;;;16.10;88.10;;;;;;5091707;28;20454;-64
2023/10/19 02:25:28;;;;;;;11.50;10.37;;;16.10;88.50;;;;;;5091314;28;20470;-64
2023/10/19 02:27:53;;;;;;;10.93;9.93;;;16.10;88.40;;;;;;5091493;28;20470;-63
2023/10/19 02:30:24;;;;;;;11.37;10.23;;;16.20;88.10;;;;;;5090698;28;20438;-64
2023/10/19 02:32:50;;;;;;;11.97;10.63;;;16.20;88.00;;;;;;5090954;28;20691;-65
2023/10/19 02:35:18;;;;;;;11.77;10.57;;;16.20;88.10;;;;;;5091230;28;20474;-64
2023/10/19 02:37:47;;;;;;;12.10;10.33;;;16.20;88.10;;;;;;5090973;28;20492;-64
2023/10/19 02:40:19;;;;;;;11.53;10.07;;;16.30;88.10;;;;;;5090781;28;20441;-64
2023/10/19 02:42:47;;;;;;;12.23;9.93;;;16.30;88.20;;;;;;5091128;28;20536;-64
2023/10/19 02:45:15;;;;;;;12.00;10.77;;;16.20;88.30;;;;;;5091177;28;20527;-64
2023/10/19 02:47:45;;;;;;;11.77;10.57;;;16.20;88.60;;;;;;5090547;28;20451;-65
2023/10/19 02:50:13;;;;;;;11.77;10.50;;;16.20;88.70;;;;;;5091186;28;20453;-64
2023/10/19 02:52:42;;;;;;;11.10;9.13;;;16.30;88.80;;;;;;5091238;28;20454;-64
2023/10/19 02:55:09;;;;;;;10.00;9.00;;;16.30;88.60;;;;;;5056121;28;20535;-64
2023/10/19 02:57:37;;;;;;;10.70;9.60;;;16.30;88.50;;;;;;5091640;28;20511;-65
2023/10/19 03:00:11;;;;;;;11.27;10.07;;;16.30;88.50;;;;;;5095139;28;20454;-64
2023/10/19 03:02:39;;;;;;;11.37;10.17;;;16.30;89.10;;;;;;5095550;28;20473;-63
2023/10/19 03:05:12;;;;;;;10.93;9.83;;;16.30;89.20;;;;;;5095336;28;20485;-64
2023/10/19 03:07:39;;;;;;;9.53;8.63;;;16.30;89.20;;;;;;5095154;28;20462;-65
2023/10/19 03:10:07;;;;;;;10.33;9.33;;;16.30;89.20;;;;;;5095565;28;20466;-65
2023/10/19 03:12:33;;;;;;;10.10;9.10;;;16.40;89.20;;;;;;5095257;28;20457;-64
2023/10/19 03:15:00;;;;;;;9.47;8.57;;;16.40;88.90;;;;;;5094695;28;20529;-64
2023/10/19 03:17:29;;;;;;;8.87;7.90;;;16.50;88.90;;;;;;5094900;28;20466;-64
2023/10/19 03:19:56;;;;;;;10.87;9.87;;;16.50;89.80;;;;;;5093902;28;20464;-64
2023/10/19 03:22:24;;;;;;;11.20;9.87;;;16.50;89.10;;;;;;5094622;28;20446;-64
2023/10/19 03:24:59;;;;;;;10.90;9.73;;;16.50;89.10;;;;;;5094682;28;20554;-64
2023/10/19 03:27:26;;;;;;;10.07;9.07;;;16.50;89.40;;;;;;5093948;28;20813;-64
2023/10/19 03:29:54;;;;;;;10.23;9.23;;;16.50;89.40;;;;;;5094500;28;20795;-64
2023/10/19 03:32:26;;;;;;;10.87;9.77;;;16.50;89.50;;;;;;5094478;28;20545;-64
2023/10/19 03:34:55;;;;;;;10.43;9.20;;;16.50;89.90;;;;;;5093985;28;20462;-63
2023/10/19 03:37:25;;;;;;;9.77;8.77;;;16.50;89.20;;;;;;5094350;28;20454;-64
2023/10/19 03:39:56;;;;;;;10.23;9.23;;;16.50;89.00;;;;;;5093959;28;20454;-65
2023/10/19 03:42:26;;;;;;;10.13;8.83;;;16.60;89.20;;;;;;5094769;28;20790;-65
2023/10/19 03:44:55;;;;;;;9.00;8.20;;;16.60;89.10;;;;;;5094987;28;20535;-64
2023/10/19 03:47:25;;;;;;;9.77;8.83;;;16.60;89.30;;;;;;5095057;28;20449;-64
2023/10/19 03:49:56;;;;;;;10.57;9.30;;;16.60;88.90;;;;;;5094345;28;20961;-65
2023/10/19 03:52:26;;;;;;;11.00;9.90;;;16.60;88.90;;;;;;5094780;28;20446;-64
2023/10/19 03:54:58;;;;;;;12.23;10.43;;;16.60;88.90;;;;;;5094899;28;20438;-64
2023/10/19 03:57:29;;;;;;;11.17;9.90;;;16.60;88.80;;;;;;5095710;28;20447;-64
2023/10/19 03:59:57;;;;;;;9.93;8.93;;;16.60;89.70;;;;;;5094310;28;20562;-63
2023/10/19 04:02:24;;;;;;;10.87;9.77;;;16.60;88.80;;;;;;5094151;28;20985;-64
2023/10/19 04:04:52;;;;;;;9.70;8.70;;;16.70;89.10;;;;;;5092852;28;20455;-64
2023/10/19 04:07:21;;;;;;;10.13;9.13;;;16.70;89.10;;;;;;5093152;28;20493;-65
2023/10/19 04:10:09;;;;;;;11.37;10.17;;;16.70;89.20;;;;;;5092925;28;20481;-64
2023/10/19 04:12:37;;;;;;;10.37;9.27;;;16.70;89.20;;;;;;5094516;28;20470;-65
2023/10/19 04:15:12;;;;;;;9.90;9.00;;;16.60;88.90;;;;;;5094676;28;20483;-63
2023/10/19 04:17:40;;;;;;;10.70;9.60;;;16.60;88.90;;;;;;5094456;28;20458;-64
2023/10/19 04:20:26;;;;;;;10.13;9.07;;;16.60;88.70;;;;;;5094323;28;20549;-64
2023/10/19 04:22:53;;;;;;;9.57;8.60;;;16.60;88.70;;;;;;5089146;28;20887;-64
2023/10/19 04:25:25;;;;;;;9.93;8.93;;;16.60;88.60;;;;;;5094148;28;20997;-64
2023/10/19 04:27:52;;;;;;;10.23;9.17;;;16.60;88.50;;;;;;5094455;28;20229;-64
2023/10/19 04:30:22;;;;;;;10.50;9.40;;;16.60;88.60;;;;;;5092979;28;20477;-64
2023/10/19 04:32:50;;;;;;;10.67;8.83;;;16.50;88.40;;;;;;5093354;28;20450;-64
2023/10/19 04:35:22;;;;;;;10.80;9.73;;;16.50;88.10;;;;;;5094145;28;20475;-64
2023/10/19 04:37:50;;;;;;;9.87;8.87;;;16.50;87.90;;;;;;5074292;28;20423;-64
2023/10/19 04:40:17;;;;;;;9.83;8.63;;;16.50;87.90;;;;;;5090231;28;20470;-63
2023/10/19 04:42:45;;;;;;;11.27;10.07;;;16.50;87.60;;;;;;5093332;28;20486;-64
2023/10/19 04:45:13;;;;;;;9.33;8.07;;;16.40;87.50;;;;;;5092989;28;20448;-64
2023/10/19 04:47:40;;;;;;;9.03;8.10;;;16.40;87.30;;;;;;5092235;28;20486;-65
2023/10/19 04:50:10;;;;;;;9.10;8.20;;;16.40;86.90;;;;;;5092308;28;20442;-64
2023/10/19 04:52:38;;;;;;;9.77;8.77;;;16.30;86.80;;;;;;5092493;28;20451;-64
2023/10/19 04:55:05;;;;;;;10.30;9.17;;;16.30;86.60;;;;;;5092674;28;20541;-64
2023/10/19 04:57:32;;;;;;;10.70;9.60;;;16.30;86.60;;;;;;5093536;28;20791;-63
2023/10/19 05:00:01;;;;;;;8.53;7.73;;;16.20;86.70;;;;;;5093269;28;20456;-64
2023/10/19 05:02:29;;;;;;;8.97;8.07;;;16.20;87.00;;;;;;5093246;28;20965;-64
2023/10/19 05:04:56;;;;;;;7.30;6.60;;;16.20;86.70;;;;;;5092760;28;20814;-64
2023/10/19 05:07:23;;;;;;;7.80;7.00;;;16.10;86.40;;;;;;5093209;28;20486;-64
2023/10/19 05:09:50;;;;;;;8.07;7.27;;;16.10;86.50;;;;;;5093294;28;20976;-64
2023/10/19 05:12:18;;;;;;;9.33;7.47;;;16.00;86.40;;;;;;5093391;28;20449;-63
2023/10/19 05:14:45;;;;;;;8.03;7.33;;;16.00;86.50;;;;;;5092680;28;20483;-65
2023/10/19 05:17:13;;;;;;;6.87;5.97;;;16.00;86.40;;;;;;5092164;28;20509;-64
2023/10/19 05:19:40;;;;;;;7.77;6.80;;;16.00;86.30;;;;;;5092918;28;20438;-64
2023/10/19 05:22:09;;;;;;;8.03;7.00;;;16.00;86.10;;;;;;5092179;28;20447;-63
2023/10/19 05:24:36;;;;;;;6.60;6.00;;;16.00;85.90;;;;;;5091535;28;20446;-64
2023/10/19 05:27:03;;;;;;;7.00;6.30;;;16.00;85.60;;;;;;5090718;28;20566;-65
2023/10/19 05:29:32;;;;;;;7.47;6.63;;;15.90;85.50;;;;;;5091399;28;20482;-65
2023/10/19 05:32:00;;;;;;;7.73;7.03;;;15.90;85.50;;;;;;5071983;28;20867;-64
2023/10/19 05:34:29;;;;;;;8.33;7.53;;;15.90;85.60;;;;;;5091948;28;20465;-64
2023/10/19 05:36:58;;;;;;;9.10;8.20;;;15.90;86.70;;;;;;5092018;28;20539;-64
2023/10/19 05:39:27;;;;;;;7.90;7.20;;;15.80;86.00;;;;;;5091431;28;20537;-64
2023/10/19 05:41:54;;;;;;;7.93;7.23;;;15.80;86.00;;;;;;5091891;28;20454;-63
2023/10/19 05:44:24;;;;;;;7.10;6.40;;;15.80;86.00;;;;;;5091280;28;20569;-65
2023/10/19 05:46:52;;;;;;;8.53;7.73;;;15.80;85.70;;;;;;5089949;28;20486;-64
2023/10/19 05:49:19;;;;;;;7.77;7.07;;;15.80;85.40;;;;;;5091817;28;20454;-65
2023/10/19 05:51:48;;;;;;;6.90;6.30;;;15.80;85.40;;;;;;5092088;28;20442;-65
2023/10/19 05:54:14;;;;;;;7.37;6.73;;;15.80;85.40;;;;;;5092287;28;20993;-65
2023/10/19 05:56:41;;;;;;;8.00;7.30;;;15.80;85.50;;;;;;5091937;28;20446;-64
2023/10/19 06:01:46;;;;;;;7.57;6.87;;;15.70;85.90;;;;;;5166604;22;20530;-64
2023/10/19 06:04:13;;;;;;;6.47;5.93;;;15.70;85.80;;;;;;5048330;28;20479;-64
2023/10/19 06:06:40;;;;;;;7.40;6.53;;;15.70;86.00;;;;;;5019428;28;20485;-65
2023/10/19 06:09:09;;;;;;;7.30;6.60;;;15.70;85.90;;;;;;5028168;28;20461;-65
2023/10/19 06:11:37;;;;;;;6.80;6.20;;;15.70;85.70;;;;;;5015218;28;20966;-64
2023/10/19 06:14:06;;;;;;;7.10;6.50;;;15.70;85.80;;;;;;5009439;28;20454;-65
2023/10/19 06:16:34;;;;;;;7.13;6.47;;;15.70;85.70;;;;;;5019040;28;20617;-65
2023/10/19 06:19:01;;;;;;;7.03;6.43;;;15.70;85.70;;;;;;5027638;28;20453;-64
2023/10/19 06:21:27;;;;;;;6.93;6.27;;;15.70;85.80;;;;;;5026723;28;20929;-65
2023/10/19 06:23:55;;;;;;;6.73;6.13;;;15.70;85.70;;;;;;5010172;28;20895;-65
2023/10/19 06:26:23;;;;;;;6.73;6.13;;;15.70;85.50;;;;;;5016088;28;20501;-64
2023/10/19 06:28:50;;;;;;;6.07;5.57;;;15.70;85.30;;;;;;5028025;28;20768;-65
2023/10/19 06:31:19;;;;;;;6.70;6.10;;;15.70;85.50;;;;;;5009204;28;20446;-64
2023/10/19 06:33:45;;;;;;;6.93;6.30;;;15.70;85.70;;;;;;5013335;28;20457;-64
2023/10/19 06:36:12;;;;;;;6.60;6.00;;;15.70;85.60;;;;;;5034613;28;20983;-65
2023/10/19 06:38:39;;;;;;;6.93;6.33;;;15.70;85.60;;;;;;5032201;28;20469;-65
2023/10/19 06:41:16;;;;;;;7.70;7.00;;;15.80;85.70;;;;;;5012925;28;20750;-65
2023/10/19 06:43:44;;;;;;;7.37;6.67;;;15.80;85.90;;;;;;5022160;28;20487;-64
2023/10/19 06:46:12;;;;;;;8.80;7.73;;;15.80;85.90;;;;;;5017811;28;20941;-64
2023/10/19 06:48:39;;;;;;;9.67;8.67;;;15.80;85.90;;;;;;5030487;28;20523;-65
2023/10/19 06:51:06;;;;;;;8.60;7.60;;;15.80;85.90;;;;;;5028687;28;20539;-65
2023/10/19 06:53:33;;;;;;;8.53;7.57;;;15.80;85.90;;;;;;5026454;28;20449;-64
2023/10/19 06:56:00;;;;;;;8.00;7.17;;;15.80;86.20;;;;;;5023620;28;20453;-65
2023/10/19 06:58:27;;;;;;;9.53;8.60;;;15.80;86.30;;;;;;5025194;28;20452;-65
2023/10/19 07:00:59;;;;;;;9.37;8.33;;;15.80;86.30;;;;;;5026677;28;20576;-65
2023/10/19 07:03:28;;;;;;;8.97;8.00;;;15.80;86.60;;;;;;5008813;28;20442;-65
2023/10/19 07:05:56;;;;;;;9.70;8.50;;;15.90;86.80;;;;;;5006322;28;20458;-64
2023/10/19 07:08:23;;;;;;;10.10;9.03;;;15.90;87.20;;;;;;5007496;28;21030;-65
2023/10/19 07:10:50;;;;;;;9.10;8.20;;;15.90;87.60;;;;;;5021319;28;20857;-64
2023/10/19 07:13:17;;;;;;;9.87;8.90;;;15.90;88.30;;;;;;5027920;28;20544;-65
2023/10/19 07:15:46;;;;;;;9.87;8.93;;;16.00;87.80;;;;;;5018969;28;21090;-64
2023/10/19 07:18:14;;;;;;;9.00;8.07;;;16.00;87.90;;;;;;5033134;28;20538;-64
2023/10/19 07:20:42;;;;;;;8.93;8.03;;;16.00;88.00;;;;;;5044806;28;20477;-65
2023/10/19 07:23:18;;;;;;;9.07;8.17;;;16.10;88.00;;;;;;5042862;28;20452;-64
2023/10/19 07:25:47;;;;;;;8.83;7.90;;;16.10;88.20;;;;;;5010521;28;20573;-64
2023/10/19 07:28:16;;;;;;;9.23;7.80;;;16.20;88.20;;;;;;5009895;28;20493;-64
2023/10/19 07:30:44;;;;;;;10.23;9.10;;;16.20;88.30;;;;;;5010077;28;20477;-65
2023/10/19 07:33:16;;;;;;;9.03;8.13;;;16.20;88.30;;;;;;5010967;28;20462;-65
2023/10/19 07:35:54;;;;;;;7.87;6.97;;;16.30;88.10;;;;;;5013585;28;20462;-64
2023/10/19 07:38:22;;;;;;;9.10;8.27;;;16.30;88.20;;;;;;5010314;28;20457;-65
2023/10/19 07:40:52;;;;;;;10.17;9.27;;;16.40;88.40;;;;;;5011175;28;20804;-65
2023/10/19 07:43:20;;;;;;;10.43;8.87;;;16.40;88.50;;;;;;5010382;28;20464;-65
2023/10/19 07:45:47;;;;;;;9.70;8.47;;;16.50;88.50;;;;;;5027030;28;20449;-65
2023/10/19 07:48:16;;;;;;;9.53;8.53;;;16.50;88.70;;;;;;5025152;28;20503;-65
2023/10/19 07:50:45;;;;;;;9.10;8.23;;;16.60;88.90;;;;;;5029002;28;20968;-65
2023/10/19 07:53:12;;;;;;;8.50;7.70;;;16.60;88.90;;;;;;5032204;28;20457;-65
2023/10/19 07:55:39;;;;;;;10.30;9.20;;;16.70;88.70;;;;;;5017633;28;20484;-65
2023/10/19 07:58:07;;;;;;;8.97;8.07;;;16.80;88.80;;;;;;5036110;28;20971;-64
2023/10/19 08:00:34;;;;;;;8.73;7.93;;;16.80;88.70;;;;;;5047434;28;20464;-64
2023/10/19 08:03:02;;;;;;;8.63;7.73;;;16.90;89.10;;;;;;5029638;28;20544;-65
2023/10/19 08:05:29;;;;;;;8.40;7.60;;;16.90;89.50;;;;;;5016087;28;20485;-64
2023/10/19 08:08:03;;;;;;;8.47;7.67;;;17.00;89.50;;;;;;5012831;28;21000;-65
2023/10/19 08:10:30;;;;;;;8.77;7.90;;;17.10;90.00;;;;;;5016936;28;20468;-65
2023/10/19 08:12:58;;;;;;;8.70;7.90;;;17.20;90.10;;;;;;5030997;28;20536;-65
2023/10/19 08:15:26;;;;;;;8.33;7.53;;;17.30;90.00;;;;;;5025951;28;20457;-65
2023/10/19 08:17:53;;;;;;;8.20;7.37;;;17.40;90.00;;;;;;5016570;28;21164;-65
2023/10/19 08:20:24;;;;;;;8.23;7.43;;;17.50;90.00;;;;;;4996571;28;20478;-64
2023/10/19 08:22:51;;;;;;;7.60;6.73;;;17.60;90.30;;;;;;5013377;28;20293;-65
2023/10/19 08:25:20;;;;;;;7.67;6.73;;;17.70;90.10;;;;;;5013179;28;20456;-65
2023/10/19 08:27:49;;;;;;;7.30;6.60;;;17.80;90.30;;;;;;5012810;28;20516;-65
2023/10/19 08:30:17;;;;;;;6.20;5.60;;;17.90;90.00;;;;;;5013278;28;20861;-65
2023/10/19 08:32:47;;;;;;;7.53;6.73;;;18.00;89.80;;;;;;5017547;28;20457;-64
2023/10/19 08:35:15;;;;;;;6.77;6.10;;;18.20;89.80;;;;;;5014215;28;20655;-65
2023/10/19 08:37:44;;;;;;;7.63;6.60;;;18.30;90.00;;;;;;5010921;28;20265;-66
2023/10/19 08:40:14;;;;;;;7.53;6.43;;;18.30;90.10;;;;;;5022424;28;20226;-65
2023/10/19 08:42:43;;;;;;;6.77;6.03;;;18.40;90.20;;;;;;5014858;28;20454;-66
2023/10/19 08:45:12;;;;;;;8.40;6.90;;;18.40;90.00;;;;;;5010668;28;20645;-65
2023/10/19 08:47:47;;;;;;;7.47;5.83;;;18.50;90.00;;;;;;5014084;28;20477;-65
2023/10/19 08:50:15;;;;;;;7.97;6.57;;;18.60;90.00;;;;;;5011782;28;20203;-65
2023/10/19 08:52:46;;;;;;;8.60;6.70;;;18.60;90.00;;;;;;5024914;28;20469;-65
2023/10/19 08:55:13;;;;;;;7.30;6.53;;;18.70;90.50;;;;;;5034877;28;20202;-64
2023/10/19 08:57:40;;;;;;;7.10;6.47;;;18.80;90.20;;;;;;5033332;28;20290;-65
2023/10/19 09:00:12;;;;;;;8.20;6.53;;;18.80;90.10;;;;;;5046021;28;20546;-66
2023/10/19 09:02:39;;;;;;;6.90;6.20;;;18.90;90.40;;;;;;5022740;28;20241;-65
2023/10/19 09:05:19;;;;;;;7.27;6.60;;;19.00;90.40;;;;;;5010369;28;20234;-65
2023/10/19 09:07:47;;;;;;;6.60;6.00;;;19.10;90.40;;;;;;5010253;28;20223;-65
2023/10/19 09:10:17;;;;;;;6.70;6.00;;;19.10;90.10;;;;;;5010785;28;20211;-66
2023/10/19 09:12:58;;;;;;;6.50;5.60;;;19.20;90.10;;;;;;5025858;28;20209;-65
2023/10/19 09:15:26;;;;;;;6.77;6.07;;;19.30;90.00;;;;;;5019734;28;20379;-65
2023/10/19 09:17:54;;;;;;;7.00;6.30;;;19.40;90.00;;;;;;5020629;28;20564;-65
2023/10/19 09:20:27;;;;;;;6.50;5.80;;;19.40;89.50;;;;;;5029291;28;20748;-65
2023/10/19 09:22:56;;;;;;;6.53;5.67;;;19.50;89.10;;;;;;5028988;28;20678;-65
2023/10/19 09:25:23;;;;;;;7.00;5.63;;;19.70;89.60;;;;;;5028470;28;20230;-65
2023/10/19 09:27:51;;;;;;;8.10;6.30;;;19.80;89.50;;;;;;5015240;28;20285;-65
2023/10/19 09:30:20;;;;;;;6.83;5.40;;;19.80;89.20;;;;;;5021531;28;20206;-65
2023/10/19 09:32:49;;;;;;;6.87;5.73;;;19.90;89.00;;;;;;5025026;28;20208;-65
2023/10/19 09:35:17;;;;;;;7.67;5.43;;;19.90;88.40;;;;;;5029584;28;20607;-65
2023/10/19 09:37:44;;;;;;;6.93;5.27;;;20.00;89.10;;;;;;5013436;28;20203;-65
2023/10/19 09:40:12;;;;;;;6.40;4.83;;;20.20;88.40;;;;;;5021558;28;20301;-66
2023/10/19 09:42:45;;;;;;;5.77;4.97;;;20.30;88.50;;;;;;5029703;28;20240;-65
2023/10/19 09:45:13;;;;;;;7.47;5.57;;;20.40;88.30;;;;;;5029237;28;20202;-65
2023/10/19 09:47:46;;;;;;;8.50;4.40;;;20.50;87.30;;;;;;5029491;28;20229;-65
2023/10/19 09:50:15;;;;;;;5.37;4.43;;;20.50;87.30;;;;;;5021426;28;20290;-65
2023/10/19 09:52:43;;;;;;;4.77;4.27;;;20.60;87.30;;;;;;5022056;28;20259;-65
2023/10/19 09:55:19;;;;;;;4.63;4.23;;;20.70;87.20;;;;;;5028953;28;20212;-64
2023/10/19 09:57:52;;;;;;;5.67;4.73;;;20.70;86.80;;;;;;5029522;28;20197;-65
2023/10/19 10:00:23;;;;;;;6.73;4.73;;;20.80;86.90;;;;;;5027382;28;20221;-65
2023/10/19 10:02:51;;;;;;;5.60;4.07;;;20.90;87.00;;;;;;5029148;28;20222;-65
2023/10/19 10:05:48;;;;;;;4.23;3.83;;;20.90;86.90;;;;;;5028929;28;20219;-65
2023/10/19 10:08:34;;;;;;;5.47;4.47;;;20.90;86.50;;;;;;5027931;28;20232;-66
2023/10/19 10:11:18;;;;;;;5.93;3.93;;;20.90;86.40;;;;;;5014958;28;20210;-65
2023/10/19 10:13:46;;;;;;;4.20;3.80;;;20.90;86.40;;;;;;5008837;28;20208;-65
2023/10/19 10:16:17;;;;;;;5.83;4.20;;;20.80;86.00;;;;;;5009190;28;20207;-65
2023/10/19 10:18:48;;;;;;;6.50;4.43;;;20.80;86.10;;;;;;5009508;28;20290;-65
2023/10/19 10:21:20;;;;;;;4.40;4.00;;;20.70;86.40;;;;;;5024264;28;20225;-66
2023/10/19 10:23:49;;;;;;;6.23;4.23;;;20.70;87.30;;;;;;5028694;28;20460;-65
2023/10/19 10:26:17;;;;;;;4.93;4.50;;;20.70;87.50;;;;;;5028396;28;20293;-65
2023/10/19 10:28:49;;;;;;;6.57;4.73;;;20.60;87.60;;;;;;5028134;28;20222;-65
2023/10/19 10:31:22;;;;;;;5.47;4.40;;;20.60;88.00;;;;;;5022451;28;20730;-65
2023/10/19 10:33:51;;;;;;;6.00;4.20;;;20.50;87.80;;;;;;5028660;28;20641;-65
2023/10/19 10:36:20;;;;;;;5.10;4.20;;;20.50;87.80;;;;;;5028706;28;20211;-64
2023/10/19 10:38:48;;;;;;;5.10;4.70;;;20.40;88.00;;;;;;5028654;28;20211;-65
2023/10/19 10:41:21;;;;;;;5.67;4.77;;;20.40;88.20;;;;;;5028064;28;20634;-65
2023/10/19 10:43:53;;;;;;;5.47;4.87;;;20.40;88.30;;;;;;5028708;28;20263;-65
2023/10/19 10:46:22;;;;;;;5.70;4.80;;;20.30;88.50;;;;;;5028262;28;20206;-65
2023/10/19 10:48:49;;;;;;;5.47;4.97;;;20.20;89.60;;;;;;5028521;28;20230;-65
2023/10/19 10:51:18;;;;;;;7.10;5.23;;;20.20;89.00;;;;;;5028086;28;20293;-65
2023/10/19 10:53:48;;;;;;;6.80;5.60;;;20.20;89.20;;;;;;5028587;28;20217;-65
2023/10/19 10:56:15;;;;;;;5.97;4.80;;;20.20;89.70;;;;;;5028307;28;20362;-65
2023/10/19 10:58:42;;;;;;;5.83;4.73;;;20.20;89.70;;;;;;5028391;28;20297;-65
2023/10/19 11:01:10;;;;;;;5.13;4.63;;;20.20;89.80;;;;;;5014806;28;20556;-65
2023/10/19 11:03:37;;;;;;;6.53;5.93;;;20.10;90.00;;;;;;5009304;28;20274;-65
2023/10/19 11:06:07;;;;;;;5.90;5.40;;;20.10;90.00;;;;;;5009126;28;20211;-63
2023/10/19 11:08:36;;;;;;;5.70;5.10;;;20.10;90.00;;;;;;4990277;28;20780;-65
2023/10/19 11:11:10;;;;;;;5.97;5.47;;;20.10;90.10;;;;;;5021266;28;20213;-65
2023/10/19 11:13:38;;;;;;;5.33;4.83;;;20.00;90.30;;;;;;5028767;28;20288;-64
2023/10/19 11:16:07;;;;;;;5.80;5.30;;;20.00;90.30;;;;;;5028559;28;20202;-65
2023/10/19 11:18:36;;;;;;;6.80;5.43;;;20.00;90.50;;;;;;5028791;28;20299;-65
2023/10/19 11:21:07;;;;;;;6.20;5.47;;;20.00;90.70;;;;;;5025854;28;20575;-65
2023/10/19 11:23:42;;;;;;;7.87;6.10;;;20.00;90.70;;;;;;5032563;28;20207;-65
2023/10/19 11:26:10;;;;;;;8.27;5.33;;;20.00;90.90;;;;;;5031789;28;20245;-65
2023/10/19 11:28:42;;;;;;;6.27;5.67;;;20.00;90.80;;;;;;5032072;28;20226;-65
2023/10/19 11:31:17;;;;;;;8.43;7.23;;;20.00;90.90;;;;;;5018700;28;20290;-65
2023/10/19 11:33:45;;;;;;;6.57;5.97;;;20.00;91.00;;;;;;5012226;28;20289;-65
2023/10/19 11:36:13;;;;;;;7.67;6.80;;;19.90;91.00;;;;;;4977312;28;20298;-65
2023/10/19 11:38:43;;;;;;;6.20;5.60;;;20.00;91.10;;;;;;5013099;28;20214;-65
2023/10/19 11:41:10;;;;;;;6.93;6.23;;;20.00;91.30;;;;;;5032140;28;20210;-65
2023/10/19 11:43:37;;;;;;;10.13;5.83;;;20.00;91.60;;;;;;5031485;28;20206;-65
2023/10/19 11:46:05;;;;;;;6.77;5.57;;;20.00;91.20;;;;;;5031454;28;20580;-65
2023/10/19 11:48:33;;;;;;;6.13;5.60;;;20.00;91.30;;;;;;5031339;28;20245;-65
2023/10/19 11:51:03;;;;;;;7.00;6.13;;;20.00;91.30;;;;;;5012647;28;20209;-65
2023/10/19 11:53:33;;;;;;;7.10;6.40;;;20.00;91.40;;;;;;5011844;28;20618;-65
2023/10/19 11:56:03;;;;;;;6.80;6.17;;;20.00;91.50;;;;;;5011375;28;20210;-65
2023/10/19 11:58:32;;;;;;;6.60;6.00;;;20.00;91.50;;;;;;5011667;28;20207;-65
2023/10/19 12:00:59;;;;;;;8.83;6.63;;;20.00;91.50;;;;;;5029483;28;20302;-65
2023/10/19 12:03:27;;;;;;;7.03;6.20;;;19.90;91.70;;;;;;5031426;28;20227;-65
2023/10/19 12:05:55;;;;;;;6.23;5.63;;;19.90;91.60;;;;;;5031129;28;20305;-65
2023/10/19 12:08:22;;;;;;;7.00;6.30;;;19.90;91.70;;;;;;5031206;28;20315;-65
2023/10/19 12:10:50;;;;;;;7.57;6.77;;;19.90;91.70;;;;;;5014730;28;20325;-65
2023/10/19 12:13:18;;;;;;;8.27;6.30;;;20.00;91.80;;;;;;5011129;28;20207;-65
2023/10/19 12:15:51;;;;;;;7.40;6.60;;;20.00;91.80;;;;;;4993686;28;20206;-65
2023/10/19 12:18:19;;;;;;;7.33;6.63;;;20.10;91.90;;;;;;5011788;28;20200;-65
2023/10/19 12:20:46;;;;;;;6.97;6.27;;;20.10;91.90;;;;;;5027563;28;20210;-65
2023/10/19 12:23:13;;;;;;;7.30;6.17;;;20.10;91.90;;;;;;5031290;28;20690;-65
2023/10/19 12:25:42;;;;;;;6.40;5.80;;;20.20;91.90;;;;;;5031854;28;20214;-65
2023/10/19 12:28:13;;;;;;;7.43;5.93;;;20.20;91.90;;;;;;5030893;28;20218;-64
2023/10/19 12:30:44;;;;;;;7.13;6.17;;;20.40;92.00;;;;;;5022378;28;20203;-65
2023/10/19 12:33:15;;;;;;;6.47;5.87;;;20.50;92.00;;;;;;5031386;28;20230;-65
2023/10/19 12:35:45;;;;;;;7.70;6.10;;;20.60;91.70;;;;;;5031209;28;20452;-65
2023/10/19 12:38:16;;;;;;;7.93;6.70;;;20.70;91.70;;;;;;5030858;28;20204;-65
2023/10/19 12:40:47;;;;;;;9.37;5.97;;;20.70;91.70;;;;;;5015641;28;20291;-65
2023/10/19 12:43:14;;;;;;;7.10;5.73;;;20.70;91.80;;;;;;5011334;28;20655;-65
2023/10/19 12:45:43;;;;;;;6.30;5.67;;;20.60;91.70;;;;;;5011314;28;20365;-65
2023/10/19 12:48:11;;;;;;;7.20;5.80;;;20.60;91.80;;;;;;5011255;28;20227;-64
2023/10/19 12:50:40;;;;;;;6.13;5.33;;;20.60;91.80;;;;;;5025519;28;20206;-64
2023/10/19 12:53:07;;;;;;;6.70;5.50;;;20.50;91.70;;;;;;5030498;28;20666;-64
2023/10/19 12:55:34;;;;;;;7.27;5.77;;;20.60;91.70;;;;;;5030794;28;20238;-65
2023/10/19 12:58:07;;;;;;;7.87;6.03;;;20.50;91.70;;;;;;5030098;28;20266;-65